Time;durP1;ratioP1;P1;durP2;ratioP2;P2;SDS_P1;SDS_P2;PMS_P1;PMS_P2;Temp;Humidity;BMP_temperature;BMP_pressure;BME280_temperature;BME280_humidity;BME280_pressure;Samples;Min_cycle;Max_cycle;Signal;HPM_P1;HPM_P2
2022/09/10 00:01:02;;;;;;;;;;;;;;;;;;8367428;28;28556;-79
2022/09/10 00:05:02;;;;;;;;;;;;;;;;;;8380335;28;31045;-78
2022/09/10 00:09:02;;;;;;;;;;;;;;;;;;8384735;28;29218;-79
2022/09/10 00:13:02;;;;;;;;;;;;;;;;;;8370196;28;28485;-78
2022/09/10 00:17:04;;;;;;;;;;;;;;;;;;8384422;28;27217;-79
2022/09/10 00:21:04;;;;;;;;;;;;;;;;;;8379470;28;27472;-80
2022/09/10 00:25:04;;;;;;;;;;;;;;;;;;8382165;28;28003;-80
2022/09/10 00:29:05;;;;;;;;;;;;;;;;;;8366892;28;28661;-80
2022/09/10 00:33:05;;;;;;;;;;;;;;;;;;8369033;28;28635;-80
2022/09/10 00:37:05;;;;;;;;;;;;;;;;;;8369230;28;28170;-80
2022/09/10 00:41:07;;;;;;;;;;;;;;;;;;8368838;28;29503;-78
2022/09/10 00:45:07;;;;;;;;;;;;;;;;;;8368056;28;28305;-81
2022/09/10 00:49:08;;;;;;;;;;;;;;;;;;8368241;28;28318;-82
2022/09/10 00:53:09;;;;;;;;;;;;;;;;;;8382050;28;27617;-81
2022/09/10 00:57:12;;;;;;;;;;;;;;;;;;8381987;28;28551;-81
2022/09/10 01:01:12;;;;;;;;;;;;;;;;;;8363312;28;28670;-81
2022/09/10 01:05:12;;;;;;;;;;;;;;;;;;8380904;28;27408;-81
2022/09/10 01:09:12;;;;;;;;;;;;;;;;;;8365712;28;28147;-81
2022/09/10 01:13:12;;;;;;;;;;;;;;;;;;8376576;28;28272;-80
2022/09/10 01:17:12;;;;;;;;;;;;;;;;;;8366149;28;28666;-81
2022/09/10 01:21:13;;;;;;;;;;;;;;;;;;8377932;28;28380;-81
2022/09/10 01:25:13;;;;;;;;;;;;;;;;;;8379603;28;29838;-81
2022/09/10 01:29:13;;;;;;;;;;;;;;;;;;8364177;28;29433;-81
2022/09/10 01:33:14;;;;;;;;;;;;;;;;;;8366278;28;28728;-81
2022/09/10 01:37:15;;;;;;;;;;;;;;;;;;8380393;28;27601;-81
2022/09/10 01:41:15;;;;;;;;;;;;;;;;;;8365458;28;28224;-80
2022/09/10 01:45:15;;;;;;;;;;;;;;;;;;8382199;28;28451;-81
2022/09/10 01:49:17;;;;;;;;;;;;;;;;;;8378272;28;28156;-82
2022/09/10 01:53:17;;;;;;;;;;;;;;;;;;8363520;28;29291;-80
2022/09/10 01:57:18;;;;;;;;;;;;;;;;;;8379626;28;28563;-81
2022/09/10 02:01:19;;;;;;;;;;;;;;;;;;8366294;28;28352;-80
2022/09/10 02:05:19;;;;;;;;;;;;;;;;;;8368137;28;28536;-81
2022/09/10 02:09:19;;;;;;;;;;;;;;;;;;8378928;28;27997;-80
2022/09/10 02:13:20;;;;;;;;;;;;;;;;;;8368192;28;28343;-81
2022/09/10 02:17:20;;;;;;;;;;;;;;;;;;8368451;28;28742;-80
2022/09/10 02:21:20;;;;;;;;;;;;;;;;;;8367850;28;28437;-81
2022/09/10 02:25:20;;;;;;;;;;;;;;;;;;8365604;28;28549;-82
2022/09/10 02:29:21;;;;;;;;;;;;;;;;;;8382395;28;27897;-79
2022/09/10 02:33:21;;;;;;;;;;;;;;;;;;8369120;28;28236;-81
2022/09/10 02:37:21;;;;;;;;;;;;;;;;;;8383093;28;27442;-81
2022/09/10 02:41:24;;;;;;;;;;;;;;;;;;8377029;28;28508;-80
2022/09/10 02:45:24;;;;;;;;;;;;;;;;;;8379310;28;28536;-80
2022/09/10 02:49:24;;;;;;;;;;;;;;;;;;8368101;28;28705;-79
2022/09/10 02:53:25;;;;;;;;;;;;;;;;;;8361127;28;28173;-79
2022/09/10 02:57:25;;;;;;;;;;;;;;;;;;8363354;28;28223;-79
2022/09/10 03:01:25;;;;;;;;;;;;;;;;;;8375726;28;28716;-80
2022/09/10 03:05:25;;;;;;;;;;;;;;;;;;8375244;28;28198;-80
2022/09/10 03:09:27;;;;;;;;;;;;;;;;;;8362469;28;28498;-80
2022/09/10 03:13:27;;;;;;;;;;;;;;;;;;8380033;28;28407;-80
2022/09/10 03:17:27;;;;;;;;;;;;;;;;;;8379833;28;27244;-80
2022/09/10 03:21:28;;;;;;;;;;;;;;;;;;8377416;28;27276;-81
2022/09/10 03:25:28;;;;;;;;;;;;;;;;;;8378481;28;27607;-80
2022/09/10 03:29:29;;;;;;;;;;;;;;;;;;8378008;28;27281;-79
2022/09/10 03:33:29;;;;;;;;;;;;;;;;;;8378288;28;27391;-81
2022/09/10 03:37:30;;;;;;;;;;;;;;;;;;8376864;28;28145;-81
2022/09/10 03:41:30;;;;;;;;;;;;;;;;;;8378282;28;27374;-80
2022/09/10 03:45:30;;;;;;;;;;;;;;;;;;8379711;28;28591;-78
2022/09/10 03:49:31;;;;;;;;;;;;;;;;;;8363879;28;28719;-79
2022/09/10 03:53:31;;;;;;;;;;;;;;;;;;8367104;28;28559;-80
2022/09/10 03:57:32;;;;;;;;;;;;;;;;;;8360766;28;28208;-79
2022/09/10 04:01:32;;;;;;;;;;;;;;;;;;8380745;28;29052;-79
2022/09/10 04:05:32;;;;;;;;;;;;;;;;;;8360657;28;28382;-80
2022/09/10 04:09:32;;;;;;;;;;;;;;;;;;8365313;28;28732;-80
2022/09/10 04:13:33;;;;;;;;;;;;;;;;;;8379504;28;27531;-78
2022/09/10 04:17:33;;;;;;;;;;;;;;;;;;8365142;28;28600;-79
2022/09/10 04:21:33;;;;;;;;;;;;;;;;;;8362201;28;28386;-80
2022/09/10 04:25:33;;;;;;;;;;;;;;;;;;8363927;28;28431;-81
2022/09/10 04:29:34;;;;;;;;;;;;;;;;;;8376583;28;28543;-80
2022/09/10 04:33:34;;;;;;;;;;;;;;;;;;8367788;28;28350;-80
2022/09/10 04:37:34;;;;;;;;;;;;;;;;;;8362530;28;28844;-81
2022/09/10 04:41:34;;;;;;;;;;;;;;;;;;8377242;28;27566;-81
2022/09/10 04:45:34;;;;;;;;;;;;;;;;;;8382704;28;27447;-81
2022/09/10 04:49:34;;;;;;;;;;;;;;;;;;8371206;28;28775;-81
2022/09/10 04:53:35;;;;;;;;;;;;;;;;;;8382322;28;27570;-80
2022/09/10 04:57:35;;;;;;;;;;;;;;;;;;8368882;28;28271;-80
2022/09/10 05:01:35;;;;;;;;;;;;;;;;;;8380471;27;27705;-79
2022/09/10 05:05:35;;;;;;;;;;;;;;;;;;8381891;28;27499;-80
2022/09/10 05:09:35;;;;;;;;;;;;;;;;;;8362564;28;28502;-81
2022/09/10 05:13:35;;;;;;;;;;;;;;;;;;8382613;28;28063;-78
2022/09/10 05:17:35;;;;;;;;;;;;;;;;;;8384379;28;27620;-81
2022/09/10 05:21:36;;;;;;;;;;;;;;;;;;8361941;28;28554;-81
2022/09/10 05:25:36;;;;;;;;;;;;;;;;;;8364868;28;28329;-80
2022/09/10 05:29:36;;;;;;;;;;;;;;;;;;8379351;28;28276;-80
2022/09/10 05:33:39;;;;;;;;;;;;;;;;;;8368118;28;28483;-79
2022/09/10 05:37:39;;;;;;;;;;;;;;;;;;8377722;28;28819;-79
2022/09/10 05:41:39;;;;;;;;;;;;;;;;;;8368390;28;28562;-80
2022/09/10 05:45:39;;;;;;;;;;;;;;;;;;8383377;28;27603;-80
2022/09/10 05:49:40;;;;;;;;;;;;;;;;;;8379730;28;27377;-79
2022/09/10 05:53:40;;;;;;;;;;;;;;;;;;8377344;28;29325;-81
2022/09/10 05:57:40;;;;;;;;;;;;;;;;;;8365101;28;29098;-81
2022/09/10 06:01:40;;;;;;;;;;;;;;;;;;8376541;28;28540;-81
2022/09/10 06:05:41;;;;;;;;;;;;;;;;;;8378018;28;28707;-81
2022/09/10 06:09:41;;;;;;;;;;;;;;;;;;8378153;28;28377;-82
2022/09/10 06:13:41;;;;;;;;;;;;;;;;;;8371952;28;28524;-82
2022/09/10 06:17:41;;;;;;;;;;;;;;;;;;8382631;28;27470;-81
2022/09/10 06:21:41;;;;;;;;;;;;;;;;;;8379383;28;29296;-80
2022/09/10 06:25:41;;;;;;;;;;;;;;;;;;8384376;28;27999;-80
2022/09/10 06:29:42;;;;;;;;;;;;;;;;;;8368834;28;27845;-79
2022/09/10 06:33:42;;;;;;;;;;;;;;;;;;8363779;28;28751;-79
2022/09/10 06:37:42;;;;;;;;;;;;;;;;;;8363390;28;28251;-80
2022/09/10 06:41:42;;;;;;;;;;;;;;;;;;8363396;28;28283;-80
2022/09/10 06:45:43;;;;;;;;;;;;;;;;;;8364967;28;28874;-80
2022/09/10 06:49:43;;;;;;;;;;;;;;;;;;8379931;27;27810;-80
2022/09/10 06:53:45;;;;;;;;;;;;;;;;;;8367274;28;28509;-78
2022/09/10 06:57:45;;;;;;;;;;;;;;;;;;8381848;27;27596;-80
2022/09/10 07:01:46;;;;;;;;;;;;;;;;;;8365496;28;28407;-79
2022/09/10 07:05:47;;;;;;;;;;;;;;;;;;8376794;28;28752;-80
2022/09/10 07:09:47;;;;;;;;;;;;;;;;;;8375594;28;28533;-79
2022/09/10 07:13:47;;;;;;;;;;;;;;;;;;8366525;28;29424;-79
2022/09/10 07:17:48;;;;;;;;;;;;;;;;;;8364673;28;28217;-79
2022/09/10 07:21:48;;;;;;;;;;;;;;;;;;8359833;28;29315;-80
2022/09/10 07:25:49;;;;;;;;;;;;;;;;;;8360645;28;29017;-80
2022/09/10 07:29:50;;;;;;;;;;;;;;;;;;8361826;28;28563;-80
2022/09/10 07:33:51;;;;;;;;;;;;;;;;;;8363228;28;28294;-82
2022/09/10 07:37:51;;;;;;;;;;;;;;;;;;8354441;28;28733;-79
2022/09/10 07:41:52;;;;;;;;;;;;;;;;;;8381414;28;28012;-81
2022/09/10 07:45:52;;;;;;;;;;;;;;;;;;8364277;28;28679;-80
2022/09/10 07:49:52;;;;;;;;;;;;;;;;;;8363602;28;28489;-81
2022/09/10 07:53:52;;;;;;;;;;;;;;;;;;8362996;28;29194;-81
2022/09/10 07:57:54;;;;;;;;;;;;;;;;;;8357109;28;29471;-81
2022/09/10 08:01:54;;;;;;;;;;;;;;;;;;8374303;28;27607;-80
2022/09/10 08:05:54;;;;;;;;;;;;;;;;;;8377899;28;28492;-81
2022/09/10 08:09:55;;;;;;;;;;;;;;;;;;8365070;28;28593;-81
2022/09/10 08:13:55;;;;;;;;;;;;;;;;;;8355392;28;28375;-80
2022/09/10 08:17:55;;;;;;;;;;;;;;;;;;8377914;28;27492;-81
2022/09/10 08:21:55;;;;;;;;;;;;;;;;;;8380804;28;27536;-79
2022/09/10 08:25:57;;;;;;;;;;;;;;;;;;8377244;28;27593;-79
2022/09/10 08:29:57;;;;;;;;;;;;;;;;;;8361870;28;29394;-78
2022/09/10 08:33:57;;;;;;;;;;;;;;;;;;8363096;28;28644;-79
2022/09/10 08:37:57;;;;;;;;;;;;;;;;;;8378227;28;28319;-80
2022/09/10 08:41:58;;;;;;;;;;;;;;;;;;8377133;28;27950;-79
2022/09/10 08:45:58;;;;;;;;;;;;;;;;;;8374731;27;28606;-80
2022/09/10 08:49:59;;;;;;;;;;;;;;;;;;8369092;28;28159;-78
2022/09/10 08:53:59;;;;;;;;;;;;;;;;;;8373714;28;27500;-79
2022/09/10 08:57:59;;;;;;;;;;;;;;;;;;8378982;28;27358;-79
2022/09/10 09:02:00;;;;;;;;;;;;;;;;;;8379704;28;27690;-79
2022/09/10 09:06:00;;;;;;;;;;;;;;;;;;8377508;28;27614;-79
2022/09/10 09:10:00;;;;;;;;;;;;;;;;;;8382401;28;27702;-79
2022/09/10 09:14:00;;;;;;;;;;;;;;;;;;8368497;28;29024;-79
2022/09/10 09:18:01;;;;;;;;;;;;;;;;;;8364593;28;29033;-79
2022/09/10 09:22:02;;;;;;;;;;;;;;;;;;8367515;28;28666;-79
2022/09/10 09:26:03;;;;;;;;;;;;;;;;;;8361116;28;28377;-79
2022/09/10 09:30:03;;;;;;;;;;;;;;;;;;8366718;28;29303;-79
2022/09/10 09:34:03;;;;;;;;;;;;;;;;;;8379831;28;28926;-78
2022/09/10 09:38:04;;;;;;;;;;;;;;;;;;8375799;28;28233;-79
2022/09/10 09:42:04;;;;;;;;;;;;;;;;;;8382529;28;27433;-80
2022/09/10 09:46:05;;;;;;;;;;;;;;;;;;8379790;28;27421;-79
2022/09/10 09:50:05;;;;;;;;;;;;;;;;;;8382440;28;28252;-78
2022/09/10 09:54:05;;;;;;;;;;;;;;;;;;8382262;28;28839;-80
2022/09/10 09:58:05;;;;;;;;;;;;;;;;;;8383241;28;27462;-77
2022/09/10 10:02:06;;;;;;;;;;;;;;;;;;8366890;28;28465;-79
2022/09/10 10:06:06;;;;;;;;;;;;;;;;;;8381234;28;27871;-78
2022/09/10 10:10:06;;;;;;;;;;;;;;;;;;8362619;28;28561;-77
2022/09/10 10:14:07;;;;;;;;;;;;;;;;;;8367153;28;28933;-76
2022/09/10 10:18:07;;;;;;;;;;;;;;;;;;8367009;28;29527;-78
2022/09/10 10:22:07;;;;;;;;;;;;;;;;;;8382113;28;28598;-79
2022/09/10 10:26:08;;;;;;;;;;;;;;;;;;8366030;28;28213;-78
2022/09/10 10:30:09;;;;;;;;;;;;;;;;;;8367535;28;28535;-78
2022/09/10 10:34:13;;;;;;;;;;;;;;;;;;8363450;28;28634;-78
2022/09/10 10:38:14;;;;;;;;;;;;;;;;;;8382393;28;27508;-80
2022/09/10 10:42:14;;;;;;;;;;;;;;;;;;8364302;28;28588;-78
2022/09/10 10:46:14;;;;;;;;;;;;;;;;;;8368275;28;28539;-77
2022/09/10 10:50:14;;;;;;;;;;;;;;;;;;8362298;28;28423;-78
2022/09/10 10:54:14;;;;;;;;;;;;;;;;;;8367830;28;28905;-78
2022/09/10 10:58:17;;;;;;;;;;;;;;;;;;8361813;28;48180;-79
2022/09/10 11:02:17;;;;;;;;;;;;;;;;;;8379090;28;28673;-78
2022/09/10 11:06:17;;;;;;;;;;;;;;;;;;8383222;28;27752;-78
2022/09/10 11:10:18;;;;;;;;;;;;;;;;;;8379419;28;27271;-78
2022/09/10 11:14:18;;;;;;;;;;;;;;;;;;8377830;28;27392;-78
2022/09/10 11:18:18;;;;;;;;;;;;;;;;;;8367792;28;28305;-78
2022/09/10 11:22:18;;;;;;;;;;;;;;;;;;8358798;28;28304;-79
2022/09/10 11:26:19;;;;;;;;;;;;;;;;;;8377092;28;29984;-79
2022/09/10 11:30:20;;;;;;;;;;;;;;;;;;8364686;28;28388;-79
2022/09/10 11:34:21;;;;;;;;;;;;;;;;;;8377910;28;28147;-79
2022/09/10 11:38:22;;;;;;;;;;;;;;;;;;8372838;28;28533;-79
2022/09/10 11:42:22;;;;;;;;;;;;;;;;;;8361043;28;28313;-79
2022/09/10 11:46:22;;;;;;;;;;;;;;;;;;8376957;28;28667;-79
2022/09/10 11:50:22;;;;;;;;;;;;;;;;;;8372016;28;28676;-79
2022/09/10 11:54:22;;;;;;;;;;;;;;;;;;8383739;28;28987;-79
2022/09/10 11:58:22;;;;;;;;;;;;;;;;;;8385079;28;27984;-79
2022/09/10 12:02:23;;;;;;;;;;;;;;;;;;8371903;28;28629;-79
2022/09/10 12:06:25;;;;;;;;;;;;;;;;;;8385178;28;27430;-79
2022/09/10 12:10:26;;;;;;;;;;;;;;;;;;8381419;28;27859;-78
2022/09/10 12:14:27;;;;;;;;;;;;;;;;;;8386104;28;27424;-78
2022/09/10 12:18:27;;;;;;;;;;;;;;;;;;8384852;28;28512;-79
2022/09/10 12:22:27;;;;;;;;;;;;;;;;;;8389011;28;28012;-78
2022/09/10 12:26:27;;;;;;;;;;;;;;;;;;8388748;28;27784;-78
2022/09/10 12:30:32;;;;;;;;;;;;;;;;;;8370987;28;28569;-81
2022/09/10 12:34:32;;;;;;;;;;;;;;;;;;8373996;28;28827;-79
2022/09/10 12:38:32;;;;;;;;;;;;;;;;;;8373952;28;28484;-80
2022/09/10 12:42:33;;;;;;;;;;;;;;;;;;8391905;28;27781;-81
2022/09/10 12:46:33;;;;;;;;;;;;;;;;;;8376636;28;28411;-79
2022/09/10 12:50:33;;;;;;;;;;;;;;;;;;8373712;28;28680;-79
2022/09/10 12:54:33;;;;;;;;;;;;;;;;;;8367796;28;28403;-79
2022/09/10 12:58:33;;;;;;;;;;;;;;;;;;8387414;28;27508;-79
2022/09/10 13:02:33;;;;;;;;;;;;;;;;;;8386581;28;27632;-79
2022/09/10 13:06:34;;;;;;;;;;;;;;;;;;8369977;28;28370;-79
2022/09/10 13:10:34;;;;;;;;;;;;;;;;;;8379081;28;28641;-80
2022/09/10 13:14:34;;;;;;;;;;;;;;;;;;8380851;28;27211;-79
2022/09/10 13:18:35;;;;;;;;;;;;;;;;;;8381297;28;27332;-79
2022/09/10 13:22:35;;;;;;;;;;;;;;;;;;8368323;28;29183;-79
2022/09/10 13:26:37;;;;;;;;;;;;;;;;;;8380510;28;29181;-78
2022/09/10 13:30:37;;;;;;;;;;;;;;;;;;8379878;28;27220;-79
2022/09/10 13:34:39;;;;;;;;;;;;;;;;;;8377277;28;28547;-78
2022/09/10 13:38:40;;;;;;;;;;;;;;;;;;8367127;28;29749;-77
2022/09/10 13:42:41;;;;;;;;;;;;;;;;;;8377383;28;28432;-78
2022/09/10 13:46:41;;;;;;;;;;;;;;;;;;8379745;28;27613;-79
2022/09/10 13:50:41;;;;;;;;;;;;;;;;;;8379699;28;27646;-79
2022/09/10 13:54:41;;;;;;;;;;;;;;;;;;8381109;28;28496;-82
2022/09/10 13:58:41;;;;;;;;;;;;;;;;;;8380036;28;28517;-80
2022/09/10 14:02:42;;;;;;;;;;;;;;;;;;8367530;28;28545;-78
2022/09/10 14:06:42;;;;;;;;;;;;;;;;;;8364604;28;28681;-80
2022/09/10 14:10:42;;;;;;;;;;;;;;;;;;8379126;28;28429;-80
2022/09/10 14:14:42;;;;;;;;;;;;;;;;;;8381418;28;27966;-80
2022/09/10 14:18:42;;;;;;;;;;;;;;;;;;8373497;28;28038;-79
2022/09/10 14:22:42;;;;;;;;;;;;;;;;;;8381719;28;27408;-79
2022/09/10 14:26:42;;;;;;;;;;;;;;;;;;8369302;28;29206;-81
2022/09/10 14:30:43;;;;;;;;;;;;;;;;;;8381438;28;27950;-80
2022/09/10 14:34:43;;;;;;;;;;;;;;;;;;8378892;28;28564;-80
2022/09/10 14:38:44;;;;;;;;;;;;;;;;;;8379119;28;28621;-79
2022/09/10 14:42:44;;;;;;;;;;;;;;;;;;8366100;28;28774;-80
2022/09/10 14:46:44;;;;;;;;;;;;;;;;;;8363603;28;28282;-79
2022/09/10 14:50:47;;;;;;;;;;;;;;;;;;8376689;28;28347;-79
2022/09/10 14:54:47;;;;;;;;;;;;;;;;;;8360846;28;28382;-78
2022/09/10 14:58:47;;;;;;;;;;;;;;;;;;8370767;28;28438;-77
2022/09/10 15:02:49;;;;;;;;;;;;;;;;;;8364163;28;28476;-77
2022/09/10 15:06:49;;;;;;;;;;;;;;;;;;8364692;28;28301;-80
2022/09/10 15:10:53;;;;;;;;;;;;;;;;;;8381704;27;27894;-79
2022/09/10 15:14:53;;;;;;;;;;;;;;;;;;8364767;28;27687;-80
2022/09/10 15:18:53;;;;;;;;;;;;;;;;;;8378366;28;27400;-82
2022/09/10 15:22:53;;;;;;;;;;;;;;;;;;8359707;28;28134;-80
2022/09/10 15:26:55;;;;;;;;;;;;;;;;;;8374127;28;27986;-79
2022/09/10 15:30:55;;;;;;;;;;;;;;;;;;8364212;28;29773;-81
2022/09/10 15:34:55;;;;;;;;;;;;;;;;;;8376633;28;28233;-80
2022/09/10 15:38:58;;;;;;;;;;;;;;;;;;8375703;28;28174;-81
2022/09/10 15:42:58;;;;;;;;;;;;;;;;;;8377682;28;27287;-80
2022/09/10 15:46:58;;;;;;;;;;;;;;;;;;8380897;28;27958;-78
2022/09/10 15:50:59;;;;;;;;;;;;;;;;;;8379898;28;27399;-81
2022/09/10 15:54:59;;;;;;;;;;;;;;;;;;8358761;28;28484;-80
2022/09/10 15:59:00;;;;;;;;;;;;;;;;;;8366846;28;28468;-80
2022/09/10 16:03:00;;;;;;;;;;;;;;;;;;8377956;28;27399;-80
2022/09/10 16:07:00;;;;;;;;;;;;;;;;;;8358521;28;28499;-80
2022/09/10 16:11:01;;;;;;;;;;;;;;;;;;8364073;28;28210;-82
2022/09/10 16:15:01;;;;;;;;;;;;;;;;;;8362603;28;28424;-81
2022/09/10 16:19:01;;;;;;;;;;;;;;;;;;8364185;28;28165;-81
2022/09/10 16:23:03;;;;;;;;;;;;;;;;;;8378984;28;28036;-81
2022/09/10 16:27:03;;;;;;;;;;;;;;;;;;8362484;28;28265;-82
2022/09/10 16:31:03;;;;;;;;;;;;;;;;;;8363401;28;29215;-81
2022/09/10 16:35:03;;;;;;;;;;;;;;;;;;8377048;28;28373;-81
2022/09/10 16:39:04;;;;;;;;;;;;;;;;;;8381103;28;28057;-79
2022/09/10 16:43:05;;;;;;;;;;;;;;;;;;8368021;28;28759;-81
2022/09/10 16:47:05;;;;;;;;;;;;;;;;;;8384701;28;27521;-82
2022/09/10 16:51:05;;;;;;;;;;;;;;;;;;8371509;28;29270;-83
2022/09/10 16:55:06;;;;;;;;;;;;;;;;;;8368710;28;29330;-80
2022/09/10 16:59:08;;;;;;;;;;;;;;;;;;8387187;28;28557;-80
2022/09/10 17:03:09;;;;;;;;;;;;;;;;;;8380191;28;28462;-80
2022/09/10 17:07:09;;;;;;;;;;;;;;;;;;8382446;28;28882;-81
2022/09/10 17:11:09;;;;;;;;;;;;;;;;;;8362051;28;28501;-81
2022/09/10 17:15:09;;;;;;;;;;;;;;;;;;8369332;28;28397;-81
2022/09/10 17:19:09;;;;;;;;;;;;;;;;;;8382480;28;27990;-80
2022/09/10 17:23:11;;;;;;;;;;;;;;;;;;8367595;28;29523;-80
2022/09/10 17:27:11;;;;;;;;;;;;;;;;;;8367021;28;28955;-81
2022/09/10 17:31:11;;;;;;;;;;;;;;;;;;8378384;28;28196;-81
2022/09/10 17:35:12;;;;;;;;;;;;;;;;;;8379750;28;28122;-82
2022/09/10 17:39:12;;;;;;;;;;;;;;;;;;8360200;28;28237;-80
2022/09/10 17:43:12;;;;;;;;;;;;;;;;;;8381177;28;27404;-81
2022/09/10 17:47:12;;;;;;;;;;;;;;;;;;8381165;28;27365;-81
2022/09/10 17:51:15;;;;;;;;;;;;;;;;;;8376267;28;27537;-82
2022/09/10 17:55:15;;;;;;;;;;;;;;;;;;8363608;28;28336;-81
2022/09/10 17:59:16;;;;;;;;;;;;;;;;;;8371884;28;28263;-82
2022/09/10 18:03:16;;;;;;;;;;;;;;;;;;8362664;28;28162;-83
2022/09/10 18:07:17;;;;;;;;;;;;;;;;;;8384004;28;28012;-82
2022/09/10 18:11:17;;;;;;;;;;;;;;;;;;8364506;28;29289;-82
2022/09/10 18:15:17;;;;;;;;;;;;;;;;;;8376737;28;29829;-82
2022/09/10 18:19:17;;;;;;;;;;;;;;;;;;8380877;28;27473;-81
2022/09/10 18:23:18;;;;;;;;;;;;;;;;;;8372967;28;28266;-82
2022/09/10 18:27:18;;;;;;;;;;;;;;;;;;8363931;28;28809;-81
2022/09/10 18:31:18;;;;;;;;;;;;;;;;;;8376910;28;27935;-80
2022/09/10 18:35:18;;;;;;;;;;;;;;;;;;8377577;28;28213;-81
2022/09/10 18:39:19;;;;;;;;;;;;;;;;;;8382769;28;27431;-81
2022/09/10 18:43:19;;;;;;;;;;;;;;;;;;8379336;28;27485;-81
2022/09/10 18:47:20;;;;;;;;;;;;;;;;;;8376541;28;28407;-82
2022/09/10 18:51:20;;;;;;;;;;;;;;;;;;8377384;28;27502;-82
2022/09/10 18:55:20;;;;;;;;;;;;;;;;;;8358616;28;29457;-82
2022/09/10 18:59:21;;;;;;;;;;;;;;;;;;8379941;28;28903;-80
2022/09/10 19:03:22;;;;;;;;;;;;;;;;;;8378062;28;28902;-80
2022/09/10 19:07:22;;;;;;;;;;;;;;;;;;8379836;28;27697;-81
2022/09/10 19:11:23;;;;;;;;;;;;;;;;;;8375876;28;27456;-81
2022/09/10 19:15:24;;;;;;;;;;;;;;;;;;8379258;28;28488;-79
2022/09/10 19:19:24;;;;;;;;;;;;;;;;;;8363981;28;28329;-80
2022/09/10 19:23:24;;;;;;;;;;;;;;;;;;8361773;28;28390;-80
2022/09/10 19:27:25;;;;;;;;;;;;;;;;;;8379682;28;27504;-82
2022/09/10 19:31:25;;;;;;;;;;;;;;;;;;8375751;28;28809;-80
2022/09/10 19:35:25;;;;;;;;;;;;;;;;;;8378235;28;28156;-81
2022/09/10 19:39:26;;;;;;;;;;;;;;;;;;8375064;28;28800;-81
2022/09/10 19:43:27;;;;;;;;;;;;;;;;;;8376686;28;27232;-80
2022/09/10 19:47:27;;;;;;;;;;;;;;;;;;8378705;28;28726;-81
2022/09/10 19:51:28;;;;;;;;;;;;;;;;;;8367658;28;29482;-81
2022/09/10 19:55:28;;;;;;;;;;;;;;;;;;8375123;28;28562;-82
2022/09/10 19:59:28;;;;;;;;;;;;;;;;;;8378518;28;28014;-83
2022/09/10 20:03:28;;;;;;;;;;;;;;;;;;8374796;28;28506;-81
2022/09/10 20:07:29;;;;;;;;;;;;;;;;;;8372592;28;28710;-83
2022/09/10 20:11:31;;;;;;;;;;;;;;;;;;8358981;28;28356;-81
2022/09/10 20:15:31;;;;;;;;;;;;;;;;;;8369212;28;28992;-80
2022/09/10 20:19:31;;;;;;;;;;;;;;;;;;8380720;28;29078;-81
2022/09/10 20:23:31;;;;;;;;;;;;;;;;;;8380694;28;28603;-80
2022/09/10 20:27:32;;;;;;;;;;;;;;;;;;8364265;28;27863;-80
2022/09/10 20:31:32;;;;;;;;;;;;;;;;;;8380027;28;28136;-80
2022/09/10 20:35:32;;;;;;;;;;;;;;;;;;8375422;28;27961;-81
2022/09/10 20:39:33;;;;;;;;;;;;;;;;;;8375498;28;28009;-82
2022/09/10 20:43:33;;;;;;;;;;;;;;;;;;8381459;28;29539;-82
2022/09/10 20:47:41;;;;;;;;;;;;;;;;;;8364416;28;28415;-81
2022/09/10 20:51:41;;;;;;;;;;;;;;;;;;8366098;28;28791;-82
2022/09/10 20:55:42;;;;;;;;;;;;;;;;;;8366508;28;28753;-82
2022/09/10 20:59:42;;;;;;;;;;;;;;;;;;8377174;28;27693;-81
2022/09/10 21:03:43;;;;;;;;;;;;;;;;;;8365253;28;27620;-81
2022/09/10 21:07:45;;;;;;;;;;;;;;;;;;8379831;28;28098;-81
2022/09/10 21:11:45;;;;;;;;;;;;;;;;;;8366263;28;28611;-81
2022/09/10 21:15:45;;;;;;;;;;;;;;;;;;8365656;28;28723;-82
2022/09/10 21:19:45;;;;;;;;;;;;;;;;;;8360782;28;28394;-80
2022/09/10 21:23:46;;;;;;;;;;;;;;;;;;8383872;28;28416;-80
2022/09/10 21:27:46;;;;;;;;;;;;;;;;;;8378649;28;27475;-81
2022/09/10 21:31:46;;;;;;;;;;;;;;;;;;8375573;28;28537;-80
2022/09/10 21:35:46;;;;;;;;;;;;;;;;;;8379365;28;27990;-81
2022/09/10 21:39:46;;;;;;;;;;;;;;;;;;8357569;28;27750;-82
2022/09/10 21:43:46;;;;;;;;;;;;;;;;;;8375754;28;28684;-81
2022/09/10 21:47:47;;;;;;;;;;;;;;;;;;8376038;28;27720;-82
2022/09/10 21:51:47;;;;;;;;;;;;;;;;;;8380917;28;29165;-81
2022/09/10 21:55:47;;;;;;;;;;;;;;;;;;8361522;27;29429;-80
2022/09/10 21:59:47;;;;;;;;;;;;;;;;;;8364519;28;27943;-78
2022/09/10 22:03:47;;;;;;;;;;;;;;;;;;8366027;28;28108;-81
2022/09/10 22:07:48;;;;;;;;;;;;;;;;;;8383288;28;27966;-81
2022/09/10 22:11:50;;;;;;;;;;;;;;;;;;8366603;28;28542;-81
2022/09/10 22:15:50;;;;;;;;;;;;;;;;;;8368315;28;28290;-80
2022/09/10 22:19:50;;;;;;;;;;;;;;;;;;8376901;28;28910;-82
2022/09/10 22:23:50;;;;;;;;;;;;;;;;;;8364341;28;28688;-83
2022/09/10 22:27:51;;;;;;;;;;;;;;;;;;8366200;28;28631;-80
2022/09/10 22:31:51;;;;;;;;;;;;;;;;;;8363591;28;28241;-83
2022/09/10 22:35:51;;;;;;;;;;;;;;;;;;8374258;28;28675;-83
2022/09/10 22:39:52;;;;;;;;;;;;;;;;;;8365592;28;28741;-82
2022/09/10 22:43:52;;;;;;;;;;;;;;;;;;8376978;28;28360;-82
2022/09/10 22:47:52;;;;;;;;;;;;;;;;;;8381171;28;28815;-81
2022/09/10 22:51:52;;;;;;;;;;;;;;;;;;8361560;28;28623;-83
2022/09/10 22:55:52;;;;;;;;;;;;;;;;;;8364677;28;28449;-83
2022/09/10 22:59:52;;;;;;;;;;;;;;;;;;8361617;28;28488;-82
2022/09/10 23:03:53;;;;;;;;;;;;;;;;;;8376819;28;27587;-81
2022/09/10 23:07:53;;;;;;;;;;;;;;;;;;8362265;28;28201;-82
2022/09/10 23:11:53;;;;;;;;;;;;;;;;;;8362840;28;28504;-81
2022/09/10 23:15:53;;;;;;;;;;;;;;;;;;8367057;28;28384;-82
2022/09/10 23:19:53;;;;;;;;;;;;;;;;;;8357589;28;28237;-82
2022/09/10 23:23:53;;;;;;;;;;;;;;;;;;8362433;28;29634;-81
2022/09/10 23:27:54;;;;;;;;;;;;;;;;;;8381608;28;27487;-82
2022/09/10 23:31:54;;;;;;;;;;;;;;;;;;8361966;28;28298;-83
2022/09/10 23:35:55;;;;;;;;;;;;;;;;;;8379876;28;28255;-82
2022/09/10 23:39:55;;;;;;;;;;;;;;;;;;8378361;28;28411;-83
2022/09/10 23:43:56;;;;;;;;;;;;;;;;;;8369703;28;28596;-82
2022/09/10 23:47:56;;;;;;;;;;;;;;;;;;8367378;28;28293;-82
2022/09/10 23:51:57;;;;;;;;;;;;;;;;;;8380619;28;27978;-81
2022/09/10 23:55:57;;;;;;;;;;;;;;;;;;8377591;28;28174;-83
2022/09/10 23:59:58;;;;;;;;;;;;;;;;;;8384312;28;27299;-82
